Home Code Reference WordPress Repository Plugins Metar ARFOR WordPress Shortcode Example

ARFOR WordPress Shortcode Example

This page is used to demonstrate the ARFOR feature of the Metar WordPress plugin.

BANKSTOWN YSBK

TAF YSBK 202300Z 2100/2112
26015G25KT CAVOK
FM210100 26020G30KT CAVOK
FM210900 26010KT CAVOK
RMK FM210000 MOD/SEV TURB BLW 5000FT TILL210900
FM210900 MOD TURB BLW 5000FT
T 15 18 17 13 Q 1015 1012 1011 1013

METAR YSBK 210130Z AUTO 25014KT 9999 // NCD 17/01 Q1014 RMK
RF00.0/000.0

BATHURST YBTH

TAF AMD YBTH 202341Z 2100/2114
23012KT 9999 BKN017
BECMG 2102/2104 25014KT 9999 SCT020
BECMG 2107/2109 26008KT 9999 BKN018
RMK FM210000 MOD TURB BLW 5000FT
T 06 08 08 06 Q 1018 1015 1014 1015

METAR YBTH 210130Z AUTO 25012KT 9999 // OVC019 06/01 Q1017 RMK
RF00.0/000.0

CAMDEN YSCN

TAF YSCN 202300Z 2100/2112
26015G25KT CAVOK
FM210100 26020G30KT CAVOK
FM210800 26010KT CAVOK
RMK FM210000 MOD/SEV TURB BLW 5000FT TILL210900
FM210900 MOD TURB BLW 5000FT
T 14 17 16 12 Q 1015 1012 1011 1013

SPECI YSCN 210142Z AUTO 26019G29KT 9999 // NCD 15/01 Q1014 RMK
RF00.0/000.0

* CANBERRA YSCB

TAF YSCB 202331Z 2100/2124
33016KT 9999 SCT035
BECMG 2101/2102 32020G30KT 9999 SCT040
BECMG 2107/2109 32010KT 9999 SCT040
RMK FM210000 MOD TURB BLW 5000FT TILL210200
T 08 10 10 07 Q 1014 1012 1012 1013

TTF METAR YSCB 210130Z 30013KT 9999 FEW020 SCT035 11/02 Q1014
RMK RF00.0/000.0
FM0130 MOD TURB BLW 5000FT

COOMA YCOM

TAF YCOM 210052Z 2102/2114
26016G26KT 9999 FEW050
FM210800 26010KT 9999 SCT050
RMK
T 09 08 05 04 Q 1010 1010 1011 1011

METAR YCOM 210130Z AUTO 27013KT 9999 // NCD 10/M03 Q1011 RMK
RF00.0/000.0

COOTAMUNDRA YCTM

Nil current TAF.

METAR/SPECI observations are not generated for this location.

COWRA YCWR

Nil current TAF.

METAR YCWR 210130Z AUTO 25013KT //// // ////// 11/03 Q1018 RMK
RF00.0/000.0

FORBES YFBS

Nil current TAF.

METAR YFBS 210130Z AUTO 24011KT //// // ////// 12/03 Q1019 RMK
RF00.0/000.0

GOULBURN YGLB

TAF AMD YGLB 210125Z 2101/2108
28022G35KT 9999 BKN016
BECMG 2103/2105 28019G35KT 9999 -SHRA BKN020
RMK FM210100 MOD/SEV TURB BLW 5000FT
T 08 08 07 Q 1014 1012 1012

SPECI YGLB 210141Z AUTO 29018G28KT 9999 // OVC016 07/03 Q1014 RMK
RF00.0/000.0 PRESENT WEATHER SENSOR US

HOLSWORTHY YSHW

TAF YSHW 202300Z 2100/2112
26015G25KT CAVOK
FM210100 26020G30KT CAVOK
FM210900 26010KT CAVOK
RMK FM210000 MOD/SEV TURB BLW 5000FT TILL210900
FM210900 MOD TURB BLW 5000FT
T 14 17 16 12 Q 1015 1012 1011 1013

METAR YSHW 210130Z AUTO 26016KT 9999 // NCD 15/01 Q1013 RMK
RF00.0/000.0

LORD HOWE ISLAND YLHI

TAF AMD YLHI 202229Z 2022/2124
24015G25KT 9999 -SHRA SCT035
FM210400 27020G30KT 9999 -SHRA SCT040
FM212200 27025G35KT 9999 -SHRA SCT030 BKN050
INTER 2100/2106 4000 SHRA BKN015
INTER 2122/2124 4000 SHRA BKN015
RMK FM202200 MOD TURB BLW 5000FT
T 16 16 17 15 Q 1013 1013 1010 1010

METAR YLHI 210130Z 25017KT 9999 FEW035 16/08 Q1012
RMK RF00.0/000.0

MALLACOOTA YMCO

Nil current TAF.

SPECI YMCO 210141Z AUTO 24015G25KT //// // ////// 13/03 Q1010 RMK
RF00.0/000.0

MERIMBULA YMER

TAF YMER 210107Z 2102/2114
24015G25KT 9999 BKN050
BECMG 2107/2108 25010KT 9999 BKN050
RMK FM210200 MOD TURB BLW 5000FT
T 16 15 12 08 Q 1010 1008 1009 1011

METAR YMER 210130Z AUTO 25013KT 9999 // SCT061 16/02 Q1011 RMK
RF00.0/000.0

MORUYA YMRY

TAF YMRY 210107Z 2102/2114
25010KT 9999 SCT060
FM210400 14010KT 9999 SCT060
FM210800 25005KT CAVOK
RMK FM210800 MOD TURB BLW 5000FT
T 17 17 13 10 Q 1010 1008 1009 1011

METAR YMRY 210130Z AUTO 09009KT 9999 // NCD 17/02 Q1010 RMK
RF00.0/000.0

NORFOLK ISLAND YSNF

TAF AMD YSNF 202238Z 2023/2124
24018G28KT 9999 SCT030
FM210800 27014KT 9999 -SHRA SCT030 SCT050
FM212200 30015G25KT 9999 SCT030
INTER 2108/2114 5000 SHRA BKN015
RMK
T 17 17 16 14 Q 1010 1010 1010 1013

METAR YSNF 210130Z AUTO 24017KT 9999 // SCT041 SCT053 BKN062 16/08
Q1010 RMK RF00.0/000.0

* NOWRA YSNW

YSNW TAF YSNW 202250Z 2100/2112
28015G25KT CAVOK
FM210500 27020G30KT CAVOK
FM210900 27015G25KT CAVOK
RMK FM210000 MOD/SEV TURB BLW 5000FT
T 14 17 15 11 Q 1013 1010 1009 1011

TTF METAR YSNW 210130Z 29015KT CAVOK 15/01 Q1012
RMK RF00.0/000.0
FM0130 MOD/SEV TURB BLW 5000FT

ORANGE YORG

TAF AMD YORG 210034Z 2102/2114
25015G25KT 9999 BKN018
FM210700 25014KT 9999 BKN012
RMK
T 06 06 04 03 Q 1016 1014 1015 1016

SPECI YORG 210130Z AUTO 25014KT 9999 // OVC012 04/01 Q1017 RMK
RF00.0/000.0

PARKES YPKS

TAF YPKS 210029Z 2102/2114
25013KT 9999 BKN040
RMK
T 12 13 10 06 Q 1018 1016 1016 1017

METAR YPKS 210130Z AUTO 24014KT 9999 // SCT037 12/02 Q1019 RMK
RF00.0/000.0

RICHMOND (NSW) YSRI

TAF AMD YSRI 210001Z 2100/2124
25014KT CAVOK
FM210900 VRB05KT CAVOK
RMK FM211000 MOD TURB BLW 5000FT TILL211800
T 16 19 18 13 Q 1015 1012 1011 1013

METAR YSRI 210130Z AUTO 27012KT 9999 // NCD 17/01 Q1014 RMK
RF00.0/000.0 PRESENT WEATHER SENSOR US

* SYDNEY YSSY

TAF YSSY 202304Z 2100/2206
26015G25KT CAVOK
FM210100 26025G35KT CAVOK
FM210900 26015G25KT CAVOK
FM211800 24012KT CAVOK
FM220200 18015KT 9999 SCT045
RMK FM210000 MOD/SEV TURB BLW 5000FT TILL210900
FM210900 MOD TURB BLW 5000FT TILL212100
T 15 18 17 14 Q 1014 1011 1011 1013

TTF SPECI YSSY 210132Z 27021G31KT CAVOK 17/01 Q1013
RMK RF00.0/000.0
FM0132 MOD/SEV TURB BLW 5000FT

TEMORA YTEM

Nil current TAF.

METAR YTEM 210130Z AUTO 26015KT //// // ////// 12/05 Q1018 RMK
RF00.0/000.0

WAGGA WAGGA YSWG

TAF YSWG 202312Z 2100/2112
26012KT 9999 -SHRA FEW006 BKN010
FM210700 27012KT 9999 -SHRA BKN015
RMK
T 07 10 11 09 Q 1018 1016 1015 1016

SPECI YSWG 210130Z 25009KT 9999 -DZ FEW009 BKN010 08/06 Q1017 RMK
RF00.0/000.0

WOLLONGONG YWOL

TAF YWOL 210107Z 2102/2114
27025G35KT 9999 FEW050
FM210800 26015G25KT CAVOK
RMK FM210200 MOD/SEV TURB BLW 5000FT
T 17 16 12 10 Q 1012 1010 1011 1012

SPECI YWOL 210130Z AUTO 26023G33KT 9999 // NCD 17/02 Q1012 RMK
RF00.0/000.0

YOUNG YYNG

TAF YYNG 210029Z 2102/2114
27005KT 9999 SCT015 BKN035
BECMG 2104/2105 25010KT 9999 -SHRA BKN018 OVC050
RMK
T 09 09 08 04 Q 1017 1015 1015 1016

SPECI YYNG 210150Z AUTO 28009KT 9999 // SCT013 BKN020 BKN028 09/06
Q1017 RMK RF00.0/000.0

* Note: The latest TTF automatically supersedes the TAF for the 3 hr validity of the TTF, unless otherwise specified in the TTF.